D/T METAR WX W/SPE G/SPE TEMP DEWP FEEL
25/05/22 00:20 EGPD 242320Z AUTO 24006KT 9999 FEW049/// //////TCU 09/08 Q1001 NOSIG 6.9mph 9°C 8°C 9.4°C
24/05/22 23:50 EGPD 242250Z AUTO 23007KT 9999 -RA SCT040/// //////TCU 10/08 Q1002 NOSIG -RA 8.1mph 10°C 8°C 10.4°C
24/05/22 23:20 EGPD 242220Z AUTO 22006KT 190V260 9999 BKN048/// //////TCU 10/08 Q1002 6.9mph 10°C 8°C 10.4°C
24/05/22 23:20 EGPD 242220Z AUTO 22006KT 190V260 9999 BKN048/// //////TCU 10/08 Q1002 NOSIG 6.9mph 10°C 8°C 10.4°C
24/05/22 22:50 EGPD 242150Z AUTO 18005KT 9999 BKN049 09/08 Q1002 5.8mph 9°C 8°C 9.4°C
24/05/22 22:20 EGPD 242120Z AUTO VRB02KT 9999 NCD 09/08 Q1002 NOSIG 2.3mph 9°C 8°C 9.4°C
24/05/22 21:50 EGPD 242050Z AUTO VRB01KT 9999 //////TCU 10/08 Q1002 NOSIG 1.2mph 10°C 8°C 10.4°C
24/05/22 21:20 EGPD 242020Z AUTO 15004KT 110V180 9999 NCD 09/07 Q1002 NOSIG 4.6mph 9°C 7°C 9.0°C
24/05/22 20:50 EGPD 241950Z AUTO 18005KT 9999 //////CB 09/07 Q1002 TEMPO SHRA 5.8mph 9°C 7°C 9.0°C
24/05/22 20:20 EGPD 241920Z AUTO 14005KT 9999 FEW045 10/08 Q1002 5.8mph 10°C 8°C 10.4°C
24/05/22 19:50 EGPD 241850Z AUTO 15004KT 9999 BKN041/// OVC048/// //////TCU 10/08 Q1002 TEMPO SHRA 4.6mph 10°C 8°C 10.4°C
24/05/22 19:20 EGPD 241820Z 18005KT 160V220 8000 -SHRA SCT039 SCT045 10/08 Q1002 -SHRA 5.8mph 10°C 8°C 10.4°C
24/05/22 18:50 EGPD 241750Z AUTO 18008KT 9999 -RA BKN034/// OVC045/// //////CB 11/08 Q1002 TEMPO 4000 SHRA BKN014 -RA 9.2mph 11°C 8°C 11.4°C
24/05/22 17:50 EGPD 241650Z AUTO 18008KT 9999 BKN031/// BKN037/// //////TCU 12/08 Q1001 TEMPO SHRA 9.2mph 12°C 8°C 12.4°C
24/05/22 17:20 EGPD 241620Z AUTO 18010KT 9999 SCT034 BKN046 12/08 Q1001 TEMPO SHRA 11.5mph 12°C 8°C 12.4°C
24/05/22 16:50 EGPD 241550Z AUTO 17011KT 9999 NCD 13/08 Q1001 12.7mph 13°C 8°C 13.4°C
24/05/22 16:20 EGPD 241520Z 01004KT 330V050 9999 FEW014 SCT030 14/06 Q1001 4.6mph 14°C 6°C 13.6°C
24/05/22 15:50 EGPD 241450Z 30003KT 230V020 9999 VCSH FEW014 SCT028 14/06 Q1001 VCSH 3.5mph 14°C 6°C 13.6°C
24/05/22 14:50 EGPD 241350Z VRB03KT 9999 FEW014 SCT030 13/07 Q1001 TEMPO SHRA 3.5mph 13°C 7°C 13.0°C
24/05/22 14:20 EGPD 241320Z AUTO 32010KT 9999 BKN033 BKN042 13/06 Q1001 TEMPO SHRA 11.5mph 13°C 6°C 12.6°C
24/05/22 13:20 EGPD 241220Z AUTO 31008KT 9999 BKN046 13/06 Q1000 9.2mph 13°C 6°C 12.6°C
24/05/22 12:50 EGPD 241150Z AUTO 33010KT 9999 FEW027 SCT032 BKN047 12/06 Q1000 NOSIG 11.5mph 12°C 6°C 11.6°C
24/05/22 12:20 EGPD 241120Z AUTO 34011KT 9999 FEW029 OVC049 12/06 Q1000 12.7mph 12°C 6°C 11.6°C
24/05/22 11:50 EGPD 241050Z AUTO 32011KT 9999 FEW029 12/06 Q1000 NOSIG 12.7mph 12°C 6°C 11.6°C
24/05/22 11:20 EGPD 241020Z AUTO 34013KT 9999 BKN026 BKN037 12/06 Q1000 NOSIG 15.0mph 12°C 6°C 11.6°C
24/05/22 10:50 EGPD 240950Z AUTO 32012KT 9999 BKN024 12/06 Q0999 NOSIG 13.8mph 12°C 6°C 11.6°C
24/05/22 10:20 EGPD 240920Z 32011KT 290V350 9999 SCT022 SCT032 11/06 Q0999 12.7mph 11°C 6°C 10.6°C
24/05/22 09:50 EGPD 240850Z AUTO 32012KT 9999 SCT018 SCT022 BKN027 11/07 Q0999 13.8mph 11°C 7°C 11.0°C
24/05/22 09:20 EGPD 240820Z AUTO 33012KT 9999 SCT019 SCT025 11/07 Q0999 NOSIG 13.8mph 11°C 7°C 11.0°C
24/05/22 08:50 EGPD 240750Z AUTO 32014KT 9999 BKN017 BKN022 11/07 Q0999 NOSIG 16.1mph 11°C 7°C 11.0°C
24/05/22 08:20 EGPD 240720Z AUTO 31013KT 9999 SCT015 SCT045 10/07 Q0999 15.0mph 10°C 7°C 10.0°C
24/05/22 07:50 EGPD 240650Z AUTO 31011KT 9999 BKN044 10/07 Q0999 NOSIG 12.7mph 10°C 7°C 10.0°C
24/05/22 07:20 EGPD 240620Z AUTO 31011KT 9999 FEW011 BKN043 10/07 Q0999 12.7mph 10°C 7°C 10.0°C
24/05/22 06:50 EGPD 240550Z AUTO 31009KT 9999 FEW010 09/07 Q0999 NOSIG 10.4mph 9°C 7°C 9.0°C
24/05/22 06:20 EGPD 240520Z AUTO 31011KT 9999 NCD 09/07 Q0998 NOSIG 12.7mph 9°C 7°C 9.0°C
24/05/22 05:50 EGPD 240450Z AUTO 32010KT 9999 NCD 09/07 Q0998 NOSIG 11.5mph 9°C 7°C 9.0°C
24/05/22 05:20 EGPD 240420Z AUTO 31012KT 9999 NCD 09/07 Q0998 13.8mph 9°C 7°C 9.0°C
24/05/22 04:50 EGPD 240350Z AUTO 31011KT 9999 FEW028 08/07 Q0998 12.7mph 8°C 7°C 8.0°C
24/05/22 04:20 EGPD 240320Z AUTO 31009KT 9999 NCD 08/07 Q0998 10.4mph 8°C 7°C 8.0°C
24/05/22 03:50 EGPD 240250Z AUTO 31009KT 9999 SCT010 BKN017 09/07 Q0998 TEMPO BKN010 10.4mph 9°C 7°C 9.0°C
24/05/22 03:20 EGPD 240220Z AUTO 31008KT 9999 BKN010 BKN021 09/07 Q0998 TEMPO BKN009 9.2mph 9°C 7°C 9.0°C
24/05/22 02:50 EGPD 240150Z AUTO 31010KT 9999 FEW024 OVC031 09/07 Q0998 NOSIG 11.5mph 9°C 7°C 9.0°C
24/05/22 02:20 EGPD 240120Z AUTO 32009KT 9999 SCT018 SCT029 BKN034 09/07 Q0998 10.4mph 9°C 7°C 9.0°C
24/05/22 01:50 EGPD 240050Z AUTO 32011KT 9999 BKN015 OVC035 09/07 Q0998 TEMPO BKN009 12.7mph 9°C 7°C 9.0°C
24/05/22 01:20 EGPD 240020Z AUTO 32010KT 9999 BKN008 BKN013 OVC035 09/08 Q0998 TEMPO BKN006 11.5mph 9°C 8°C 9.4°C
24/05/22 00:50 EGPD 232350Z AUTO 33009KT 9999 BKN007 09/08 Q0998 TEMPO BKN005 10.4mph 9°C 8°C 9.4°C
24/05/22 00:20 EGPD 232320Z AUTO 34011KT 9999 BKN007 09/08 Q0998 TEMPO BKN006 12.7mph 9°C 8°C 9.4°C
23/05/22 23:50 EGPD 232250Z AUTO 33011KT 9999 SCT007 BKN011 09/08 Q0998 TEMPO BKN007 12.7mph 9°C 8°C 9.4°C
23/05/22 23:20 EGPD 232220Z AUTO 32009KT 9999 BKN009 OVC017 09/08 Q0998 TEMPO BKN006 10.4mph 9°C 8°C 9.4°C
23/05/22 22:50 EGPD 232150Z AUTO 33010KT 9999 OVC008 09/08 Q0998 TEMPO BKN006 11.5mph 9°C 8°C 9.4°C
23/05/22 22:20 EGPD 232120Z AUTO 33009KT 9999 BKN008 BKN011 OVC024 09/08 Q0998 TEMPO BKN006 10.4mph 9°C 8°C 9.4°C
23/05/22 21:50 EGPD 232050Z AUTO 33008KT 9999 BKN008 OVC023 09/08 Q0998 TEMPO BKN006 9.2mph 9°C 8°C 9.4°C
23/05/22 21:20 EGPD 232020Z AUTO 33010KT 9999 BKN006 OVC012 10/09 Q0998 NOSIG 11.5mph 10°C 9°C 10.8°C
23/05/22 20:50 EGPD 231950Z 33010KT 8000 BKN009 10/09 Q0998 TEMPO BKN006 11.5mph 10°C 9°C 10.8°C
23/05/22 20:20 EGPD 231920Z 33013KT 4500 BR BKN007 10/09 Q0998 NOSIG BR 15.0mph 10°C 9°C 10.8°C
23/05/22 19:50 EGPD 231850Z AUTO 34011KT 9999 FEW011 SCT020 BKN025 11/09 Q0998 TEMPO BKN011 12.7mph 11°C 9°C 11.8°C
23/05/22 19:20 EGPD 231820Z AUTO 34012KT 9999 BKN011 BKN017 OVC036 12/10 Q0997 NOSIG 13.8mph 12°C 10°C 13.3°C
23/05/22 18:50 EGPD 231750Z AUTO 35010KT 9999 SCT012 BKN022 BKN032 12/10 Q0997 NOSIG 11.5mph 12°C 10°C 13.3°C
23/05/22 18:20 EGPD 231720Z AUTO 34006KT 9999 FEW018 BKN038 12/10 Q0997 6.9mph 12°C 10°C 13.3°C
23/05/22 17:50 EGPD 231650Z AUTO 01006KT 9999 SCT012 13/10 Q0997 6.9mph 13°C 10°C 14.3°C
23/05/22 17:20 EGPD 231620Z AUTO 33006KT 9999 FEW010 13/10 Q0997 NOSIG 6.9mph 13°C 10°C 14.3°C
23/05/22 16:50 EGPD 231550Z 32006KT 9999 FEW023 12/10 Q0997 6.9mph 12°C 10°C 13.3°C
23/05/22 15:50 EGPD 231450Z 34007KT 9000 4000N -RA BKN038 11/10 Q0997 RERA TEMPO 5000 -RA 8.1mph 11°C 10°C 12.3°C
23/05/22 15:20 EGPD 231420Z 33013KT 9000 3000N RA SCT016 BKN026 11/10 Q0997 RA 15.0mph 11°C 10°C 12.3°C
23/05/22 14:50 EGPD 231350Z 16013KT 9999 SCT020 14/10 Q0997 TEMPO TSRA 15.0mph 14°C 10°C 15.3°C
23/05/22 14:20 EGPD 231320Z 16012KT 9999 FEW018 16/11 Q0997 TEMPO SHRA 13.8mph 16°C 11°C 17.8°C
23/05/22 13:50 EGPD 231250Z 16010KT 9999 FEW018 15/11 Q0997 TEMPO SHRA 11.5mph 15°C 11°C 16.8°C
23/05/22 13:20 EGPD 231220Z 14010KT 9999 FEW025 SCT035 15/11 Q0997 TEMPO SHRA 11.5mph 15°C 11°C 16.8°C
23/05/22 12:50 EGPD 231150Z 16011KT 9999 -SHRA FEW025 SCT035 13/10 Q0997 TEMPO SHRA -SHRA 12.7mph 13°C 10°C 14.3°C
23/05/22 12:20 EGPD 231120Z 17009KT 9999 VCSH FEW018 SCT030 13/09 Q0997 TEMPO SHRA BKN014 VCSH 10.4mph 13°C 9°C 13.8°C
23/05/22 11:50 EGPD 231050Z 18013KT 9999 -SHRA VCSH SCT025 SCT035 13/10 Q0997 TEMPO SHRA BKN014 -SHRA VCSH 15.0mph 13°C 10°C 14.3°C
23/05/22 11:50 EGPD 231050Z 18013KT 9999 -SHRA VCSH SCT025 SCT035 13/10 Q0997 -SHRA VCSH 15.0mph 13°C 10°C 14.3°C
23/05/22 11:20 EGPD 231020Z AUTO 04005KT 290V110 9999 BKN029/// //////CB 15/09 Q0997 5.8mph 15°C 9°C 15.8°C
23/05/22 10:20 EGPD 230920Z AUTO 25005KT 200V290 9999 SCT027 SCT033 BKN043 14/09 Q0998 5.8mph 14°C 9°C 14.8°C
23/05/22 09:50 EGPD 230850Z AUTO 25004KT 170V320 9999 NCD 14/09 Q0998 4.6mph 14°C 9°C 14.8°C
23/05/22 08:50 EGPD 230750Z AUTO 26005KT 230V330 9999 -RA NCD 13/10 Q0998 NOSIG -RA 5.8mph 13°C 10°C 14.3°C
23/05/22 08:20 EGPD 230720Z AUTO 22006KT 180V280 9999 NCD 12/09 Q0999 NOSIG 6.9mph 12°C 9°C 12.8°C
23/05/22 07:50 EGPD 230650Z AUTO 22007KT 9999 NCD 12/08 Q0999 NOSIG 8.1mph 12°C 8°C 12.4°C
23/05/22 07:20 EGPD 230620Z AUTO 22008KT 9999 NCD 12/08 Q0999 NOSIG 9.2mph 12°C 8°C 12.4°C
23/05/22 06:50 EGPD 230550Z AUTO 19006KT 9999 NCD 11/08 Q0999 6.9mph 11°C 8°C 11.4°C
23/05/22 06:20 EGPD 230520Z AUTO 17006KT 9999 NCD 10/07 Q0999 NOSIG 6.9mph 10°C 7°C 10.0°C
23/05/22 05:50 EGPD 230450Z AUTO 17006KT 9999 NCD 09/07 Q0999 NOSIG 6.9mph 9°C 7°C 9.0°C
23/05/22 05:20 EGPD 230420Z AUTO 17007KT 9999 NCD 09/06 Q0999 8.1mph 9°C 6°C 8.6°C
23/05/22 04:50 EGPD 230350Z AUTO 23006KT 9999 NCD 08/06 Q0999 6.9mph 8°C 6°C 7.6°C
23/05/22 04:20 EGPD 230320Z AUTO 23007KT 9999 NCD 10/07 Q1000 NOSIG 8.1mph 10°C 7°C 10.0°C
23/05/22 03:50 EGPD 230250Z AUTO 23007KT 9999 NCD 10/06 Q1000 NOSIG 8.1mph 10°C 6°C 9.6°C
23/05/22 03:20 EGPD 230220Z AUTO 24006KT 9999 NCD 10/06 Q1000 NOSIG 6.9mph 10°C 6°C 9.6°C
23/05/22 02:50 EGPD 230150Z AUTO 24006KT 9999 NCD 10/07 Q1000 NOSIG 6.9mph 10°C 7°C 10.0°C
23/05/22 02:20 EGPD 230120Z AUTO 22008KT 9999 NCD 10/07 Q1000 NOSIG 9.2mph 10°C 7°C 10.0°C
23/05/22 01:50 EGPD 230050Z AUTO 22006KT 9999 NCD 10/08 Q1000 NOSIG 6.9mph 10°C 8°C 10.4°C
23/05/22 01:20 EGPD 230020Z AUTO 23007KT 9999 NCD 11/08 Q1000 NOSIG 8.1mph 11°C 8°C 11.4°C
23/05/22 00:50 EGPD 222350Z AUTO 24006KT 9999 NCD 11/09 Q1000 NOSIG 6.9mph 11°C 9°C 11.8°C
23/05/22 00:20 EGPD 222320Z AUTO 21008KT 9999 NCD 12/09 Q1000 NOSIG 9.2mph 12°C 9°C 12.8°C
22/05/22 23:50 EGPD 222250Z AUTO 22009KT 9999 FEW047 12/09 Q1000 NOSIG 10.4mph 12°C 9°C 12.8°C
22/05/22 23:20 EGPD 222220Z AUTO 23009KT 9999 //////TCU 13/09 Q1000 NOSIG 10.4mph 13°C 9°C 13.8°C
22/05/22 22:50 EGPD 222150Z AUTO 22012KT 9999 //////TCU 13/09 Q1000 TEMPO SHRA 13.8mph 13°C 9°C 13.8°C